sensor_id;sensor_type;location;lat;lon;timestamp;P1;durP1;ratioP1;P2;durP2;ratioP2
25091;SDS011;13082;52.374;4.946;2023-04-01T00:00:29;15.87;;;5.43;;
25091;SDS011;13082;52.374;4.946;2023-04-01T00:02:55;18.57;;;5.90;;
25091;SDS011;13082;52.374;4.946;2023-04-01T00:05:21;17.73;;;6.07;;
25091;SDS011;13082;52.374;4.946;2023-04-01T00:07:47;15.60;;;6.27;;
25091;SDS011;13082;52.374;4.946;2023-04-01T00:10:14;14.70;;;5.33;;
25091;SDS011;13082;52.374;4.946;2023-04-01T00:12:40;16.63;;;4.93;;
25091;SDS011;13082;52.374;4.946;2023-04-01T00:15:07;11.07;;;4.23;;
25091;SDS011;13082;52.374;4.946;2023-04-01T00:17:35;16.27;;;4.73;;
25091;SDS011;13082;52.374;4.946;2023-04-01T00:20:01;18.57;;;5.10;;
25091;SDS011;13082;52.374;4.946;2023-04-01T00:22:27;14.80;;;5.57;;
25091;SDS011;13082;52.374;4.946;2023-04-01T00:24:53;13.87;;;4.63;;
25091;SDS011;13082;52.374;4.946;2023-04-01T00:27:19;15.90;;;4.40;;
25091;SDS011;13082;52.374;4.946;2023-04-01T00:29:45;17.87;;;3.77;;
25091;SDS011;13082;52.374;4.946;2023-04-01T00:32:12;5.87;;;2.60;;
25091;SDS011;13082;52.374;4.946;2023-04-01T00:34:38;10.73;;;2.83;;
25091;SDS011;13082;52.374;4.946;2023-04-01T00:37:04;8.70;;;3.10;;
25091;SDS011;13082;52.374;4.946;2023-04-01T00:39:31;10.37;;;3.00;;
25091;SDS011;13082;52.374;4.946;2023-04-01T00:41:58;7.37;;;2.97;;
25091;SDS011;13082;52.374;4.946;2023-04-01T00:44:26;7.30;;;2.53;;
25091;SDS011;13082;52.374;4.946;2023-04-01T00:46:53;9.67;;;3.10;;
25091;SDS011;13082;52.374;4.946;2023-04-01T00:49:20;7.37;;;3.03;;
25091;SDS011;13082;52.374;4.946;2023-04-01T00:51:50;6.97;;;3.10;;
25091;SDS011;13082;52.374;4.946;2023-04-01T00:54:19;6.47;;;3.40;;
25091;SDS011;13082;52.374;4.946;2023-04-01T00:56:50;8.67;;;3.70;;
25091;SDS011;13082;52.374;4.946;2023-04-01T00:59:23;10.80;;;4.03;;
25091;SDS011;13082;52.374;4.946;2023-04-01T01:01:56;11.30;;;3.70;;
25091;SDS011;13082;52.374;4.946;2023-04-01T01:18:19;13.67;;;6.37;;
25091;SDS011;13082;52.374;4.946;2023-04-01T01:27:02;9.33;;;4.80;;
25091;SDS011;13082;52.374;4.946;2023-04-01T01:37:33;9.50;;;4.30;;
25091;SDS011;13082;52.374;4.946;2023-04-01T01:40:03;9.30;;;5.03;;
25091;SDS011;13082;52.374;4.946;2023-04-01T01:42:31;18.20;;;5.63;;
25091;SDS011;13082;52.374;4.946;2023-04-01T01:45:00;10.13;;;5.40;;
25091;SDS011;13082;52.374;4.946;2023-04-01T01:47:27;10.80;;;6.13;;
25091;SDS011;13082;52.374;4.946;2023-04-01T01:49:54;14.33;;;6.57;;
25091;SDS011;13082;52.374;4.946;2023-04-01T01:52:24;15.27;;;7.60;;
25091;SDS011;13082;52.374;4.946;2023-04-01T01:54:53;15.53;;;7.23;;
25091;SDS011;13082;52.374;4.946;2023-04-01T01:57:26;15.03;;;7.87;;
25091;SDS011;13082;52.374;4.946;2023-04-01T02:00:03;11.13;;;7.47;;
25091;SDS011;13082;52.374;4.946;2023-04-01T02:02:37;13.53;;;6.83;;
25091;SDS011;13082;52.374;4.946;2023-04-01T02:05:11;14.20;;;7.67;;
25091;SDS011;13082;52.374;4.946;2023-04-01T02:07:42;12.47;;;7.53;;
25091;SDS011;13082;52.374;4.946;2023-04-01T02:10:13;13.33;;;7.97;;
25091;SDS011;13082;52.374;4.946;2023-04-01T02:12:39;16.37;;;8.60;;
25091;SDS011;13082;52.374;4.946;2023-04-01T02:15:12;14.57;;;8.93;;
25091;SDS011;13082;52.374;4.946;2023-04-01T02:17:42;18.90;;;9.60;;
25091;SDS011;13082;52.374;4.946;2023-04-01T02:20:12;15.80;;;9.77;;
25091;SDS011;13082;52.374;4.946;2023-04-01T02:22:53;24.37;;;9.07;;
25091;SDS011;13082;52.374;4.946;2023-04-01T02:25:22;17.70;;;8.70;;
25091;SDS011;13082;52.374;4.946;2023-04-01T02:27:51;20.20;;;9.23;;
25091;SDS011;13082;52.374;4.946;2023-04-01T02:30:20;21.93;;;8.50;;
25091;SDS011;13082;52.374;4.946;2023-04-01T02:32:46;18.33;;;8.23;;
25091;SDS011;13082;52.374;4.946;2023-04-01T02:35:14;18.47;;;8.40;;
25091;SDS011;13082;52.374;4.946;2023-04-01T02:37:41;19.40;;;8.57;;
25091;SDS011;13082;52.374;4.946;2023-04-01T02:40:09;16.87;;;8.50;;
25091;SDS011;13082;52.374;4.946;2023-04-01T02:42:37;17.83;;;8.20;;
25091;SDS011;13082;52.374;4.946;2023-04-01T02:45:03;15.93;;;8.17;;
25091;SDS011;13082;52.374;4.946;2023-04-01T02:47:30;17.00;;;7.73;;
25091;SDS011;13082;52.374;4.946;2023-04-01T02:49:56;17.07;;;7.23;;
25091;SDS011;13082;52.374;4.946;2023-04-01T02:52:26;14.07;;;6.40;;
25091;SDS011;13082;52.374;4.946;2023-04-01T02:54:54;15.53;;;6.80;;
25091;SDS011;13082;52.374;4.946;2023-04-01T02:57:20;14.20;;;6.93;;
25091;SDS011;13082;52.374;4.946;2023-04-01T02:59:47;13.73;;;7.73;;
25091;SDS011;13082;52.374;4.946;2023-04-01T03:02:13;15.53;;;6.73;;
25091;SDS011;13082;52.374;4.946;2023-04-01T03:04:38;15.03;;;8.00;;
25091;SDS011;13082;52.374;4.946;2023-04-01T03:07:04;13.10;;;6.07;;
25091;SDS011;13082;52.374;4.946;2023-04-01T03:09:29;14.30;;;7.30;;
25091;SDS011;13082;52.374;4.946;2023-04-01T03:11:55;13.23;;;6.90;;
25091;SDS011;13082;52.374;4.946;2023-04-01T03:14:21;10.67;;;6.67;;
25091;SDS011;13082;52.374;4.946;2023-04-01T03:16:47;10.40;;;6.40;;
25091;SDS011;13082;52.374;4.946;2023-04-01T03:19:12;12.20;;;7.03;;
25091;SDS011;13082;52.374;4.946;2023-04-01T03:21:38;8.87;;;5.67;;
25091;SDS011;13082;52.374;4.946;2023-04-01T03:24:03;10.37;;;6.17;;
25091;SDS011;13082;52.374;4.946;2023-04-01T03:26:29;9.40;;;6.30;;
25091;SDS011;13082;52.374;4.946;2023-04-01T03:28:55;12.33;;;5.87;;
25091;SDS011;13082;52.374;4.946;2023-04-01T03:31:21;9.30;;;6.00;;
25091;SDS011;13082;52.374;4.946;2023-04-01T03:33:47;10.23;;;6.33;;
25091;SDS011;13082;52.374;4.946;2023-04-01T03:36:13;7.53;;;5.10;;
25091;SDS011;13082;52.374;4.946;2023-04-01T03:38:41;7.37;;;5.00;;
25091;SDS011;13082;52.374;4.946;2023-04-01T03:41:11;9.50;;;6.03;;
25091;SDS011;13082;52.374;4.946;2023-04-01T03:43:38;12.17;;;5.43;;
25091;SDS011;13082;52.374;4.946;2023-04-01T03:46:04;9.70;;;5.70;;
25091;SDS011;13082;52.374;4.946;2023-04-01T03:48:29;9.67;;;5.97;;
25091;SDS011;13082;52.374;4.946;2023-04-01T03:50:55;10.03;;;5.40;;
25091;SDS011;13082;52.374;4.946;2023-04-01T03:53:21;10.97;;;6.50;;
25091;SDS011;13082;52.374;4.946;2023-04-01T03:55:46;11.90;;;6.33;;
25091;SDS011;13082;52.374;4.946;2023-04-01T03:58:12;13.40;;;5.80;;
25091;SDS011;13082;52.374;4.946;2023-04-01T04:00:38;9.70;;;5.60;;
25091;SDS011;13082;52.374;4.946;2023-04-01T04:03:05;9.73;;;5.70;;
25091;SDS011;13082;52.374;4.946;2023-04-01T04:05:31;10.53;;;6.27;;
25091;SDS011;13082;52.374;4.946;2023-04-01T04:07:56;8.93;;;6.03;;
25091;SDS011;13082;52.374;4.946;2023-04-01T04:10:22;10.33;;;6.43;;
25091;SDS011;13082;52.374;4.946;2023-04-01T04:12:49;9.20;;;6.33;;
25091;SDS011;13082;52.374;4.946;2023-04-01T04:15:15;9.27;;;6.20;;
25091;SDS011;13082;52.374;4.946;2023-04-01T04:17:41;9.90;;;5.93;;
25091;SDS011;13082;52.374;4.946;2023-04-01T04:20:07;9.77;;;6.73;;
25091;SDS011;13082;52.374;4.946;2023-04-01T04:22:33;8.53;;;5.93;;
25091;SDS011;13082;52.374;4.946;2023-04-01T04:24:59;8.97;;;5.83;;
25091;SDS011;13082;52.374;4.946;2023-04-01T04:27:24;9.77;;;6.07;;
25091;SDS011;13082;52.374;4.946;2023-04-01T04:29:50;8.57;;;5.93;;
25091;SDS011;13082;52.374;4.946;2023-04-01T04:32:16;8.43;;;5.33;;
25091;SDS011;13082;52.374;4.946;2023-04-01T04:34:41;9.23;;;6.60;;
25091;SDS011;13082;52.374;4.946;2023-04-01T04:37:07;7.73;;;5.73;;
25091;SDS011;13082;52.374;4.946;2023-04-01T04:39:32;8.60;;;5.60;;
25091;SDS011;13082;52.374;4.946;2023-04-01T04:41:58;10.23;;;6.10;;
25091;SDS011;13082;52.374;4.946;2023-04-01T04:44:24;9.90;;;6.00;;
25091;SDS011;13082;52.374;4.946;2023-04-01T04:46:50;8.40;;;5.60;;
25091;SDS011;13082;52.374;4.946;2023-04-01T04:49:15;9.00;;;5.33;;
25091;SDS011;13082;52.374;4.946;2023-04-01T04:51:41;8.47;;;5.87;;
25091;SDS011;13082;52.374;4.946;2023-04-01T04:54:07;6.70;;;4.90;;
25091;SDS011;13082;52.374;4.946;2023-04-01T04:56:32;9.00;;;5.17;;
25091;SDS011;13082;52.374;4.946;2023-04-01T04:58:58;8.57;;;5.30;;
25091;SDS011;13082;52.374;4.946;2023-04-01T05:01:24;6.80;;;5.10;;
25091;SDS011;13082;52.374;4.946;2023-04-01T05:03:50;7.60;;;5.10;;
25091;SDS011;13082;52.374;4.946;2023-04-01T05:06:16;7.13;;;5.27;;
25091;SDS011;13082;52.374;4.946;2023-04-01T05:08:43;7.70;;;5.27;;
25091;SDS011;13082;52.374;4.946;2023-04-01T05:11:10;8.77;;;5.90;;
25091;SDS011;13082;52.374;4.946;2023-04-01T05:13:39;7.50;;;5.37;;
25091;SDS011;13082;52.374;4.946;2023-04-01T05:16:07;6.87;;;4.50;;
25091;SDS011;13082;52.374;4.946;2023-04-01T05:18:34;9.23;;;5.43;;
25091;SDS011;13082;52.374;4.946;2023-04-01T05:20:59;8.17;;;4.80;;
25091;SDS011;13082;52.374;4.946;2023-04-01T05:23:25;8.30;;;5.23;;
25091;SDS011;13082;52.374;4.946;2023-04-01T05:25:51;7.23;;;5.00;;
25091;SDS011;13082;52.374;4.946;2023-04-01T05:28:18;8.57;;;5.67;;
25091;SDS011;13082;52.374;4.946;2023-04-01T05:30:44;10.37;;;6.27;;
25091;SDS011;13082;52.374;4.946;2023-04-01T05:33:11;8.87;;;5.57;;
25091;SDS011;13082;52.374;4.946;2023-04-01T05:35:38;11.40;;;6.33;;
25091;SDS011;13082;52.374;4.946;2023-04-01T05:38:04;9.73;;;6.13;;
25091;SDS011;13082;52.374;4.946;2023-04-01T05:40:30;10.80;;;6.00;;
25091;SDS011;13082;52.374;4.946;2023-04-01T05:42:56;12.10;;;6.30;;
25091;SDS011;13082;52.374;4.946;2023-04-01T05:45:23;10.20;;;6.67;;
25091;SDS011;13082;52.374;4.946;2023-04-01T05:47:48;13.43;;;6.80;;
25091;SDS011;13082;52.374;4.946;2023-04-01T05:50:14;9.33;;;6.20;;
25091;SDS011;13082;52.374;4.946;2023-04-01T05:52:40;10.67;;;6.40;;
25091;SDS011;13082;52.374;4.946;2023-04-01T05:55:06;12.27;;;6.73;;
25091;SDS011;13082;52.374;4.946;2023-04-01T05:57:31;11.60;;;7.23;;
25091;SDS011;13082;52.374;4.946;2023-04-01T05:59:57;11.17;;;7.00;;
25091;SDS011;13082;52.374;4.946;2023-04-01T06:02:23;11.07;;;6.40;;
25091;SDS011;13082;52.374;4.946;2023-04-01T06:04:48;13.80;;;7.77;;
25091;SDS011;13082;52.374;4.946;2023-04-01T06:07:18;15.07;;;8.20;;
25091;SDS011;13082;52.374;4.946;2023-04-01T06:09:44;13.90;;;9.00;;
25091;SDS011;13082;52.374;4.946;2023-04-01T06:37:20;14.40;;;7.70;;
25091;SDS011;13082;52.374;4.946;2023-04-01T06:43:05;14.67;;;7.03;;
25091;SDS011;13082;52.374;4.946;2023-04-01T06:45:50;9.90;;;6.20;;
25091;SDS011;13082;52.374;4.946;2023-04-01T06:48:49;17.13;;;7.37;;
25091;SDS011;13082;52.374;4.946;2023-04-01T06:54:34;13.13;;;7.07;;
25091;SDS011;13082;52.374;4.946;2023-04-01T06:57:07;17.73;;;8.13;;
25091;SDS011;13082;52.374;4.946;2023-04-01T06:59:59;18.33;;;8.00;;
25091;SDS011;13082;52.374;4.946;2023-04-01T07:02:32;20.70;;;8.37;;
25091;SDS011;13082;52.374;4.946;2023-04-01T07:05:04;23.57;;;7.67;;
25091;SDS011;13082;52.374;4.946;2023-04-01T07:07:40;15.40;;;8.30;;
25091;SDS011;13082;52.374;4.946;2023-04-01T07:10:19;18.33;;;8.10;;
25091;SDS011;13082;52.374;4.946;2023-04-01T07:13:00;23.87;;;9.33;;
25091;SDS011;13082;52.374;4.946;2023-04-01T07:15:38;17.83;;;8.47;;
25091;SDS011;13082;52.374;4.946;2023-04-01T07:18:18;15.73;;;8.00;;
25091;SDS011;13082;52.374;4.946;2023-04-01T07:20:48;20.53;;;8.80;;
25091;SDS011;13082;52.374;4.946;2023-04-01T07:23:20;18.80;;;8.47;;
25091;SDS011;13082;52.374;4.946;2023-04-01T07:25:58;19.63;;;8.60;;
25091;SDS011;13082;52.374;4.946;2023-04-01T07:28:30;16.27;;;8.60;;
25091;SDS011;13082;52.374;4.946;2023-04-01T07:33:44;16.57;;;8.73;;
25091;SDS011;13082;52.374;4.946;2023-04-01T07:36:33;14.40;;;7.13;;
25091;SDS011;13082;52.374;4.946;2023-04-01T07:50:26;18.00;;;8.70;;
25091;SDS011;13082;52.374;4.946;2023-04-01T07:53:02;18.03;;;7.90;;
25091;SDS011;13082;52.374;4.946;2023-04-01T08:01:38;16.53;;;7.33;;
25091;SDS011;13082;52.374;4.946;2023-04-01T08:12:50;18.63;;;7.87;;
25091;SDS011;13082;52.374;4.946;2023-04-01T08:16:03;15.60;;;7.83;;
25091;SDS011;13082;52.374;4.946;2023-04-01T08:23:57;14.33;;;7.27;;
25091;SDS011;13082;52.374;4.946;2023-04-01T08:26:34;13.97;;;6.80;;
25091;SDS011;13082;52.374;4.946;2023-04-01T08:31:49;20.90;;;8.53;;
25091;SDS011;13082;52.374;4.946;2023-04-01T08:34:20;17.17;;;7.70;;
25091;SDS011;13082;52.374;4.946;2023-04-01T08:36:53;20.57;;;7.93;;
25091;SDS011;13082;52.374;4.946;2023-04-01T08:39:31;16.10;;;7.23;;
25091;SDS011;13082;52.374;4.946;2023-04-01T08:43:02;11.27;;;6.67;;
25091;SDS011;13082;52.374;4.946;2023-04-01T09:07:11;10.57;;;5.53;;
25091;SDS011;13082;52.374;4.946;2023-04-01T09:12:49;11.83;;;6.33;;
25091;SDS011;13082;52.374;4.946;2023-04-01T09:15:27;12.20;;;6.47;;
25091;SDS011;13082;52.374;4.946;2023-04-01T09:18:23;13.53;;;6.27;;
25091;SDS011;13082;52.374;4.946;2023-04-01T09:41:45;17.07;;;8.27;;
25091;SDS011;13082;52.374;4.946;2023-04-01T09:43:47;16.20;;;8.40;;
25091;SDS011;13082;52.374;4.946;2023-04-01T09:46:34;20.30;;;9.57;;
25091;SDS011;13082;52.374;4.946;2023-04-01T09:51:49;13.37;;;8.10;;
25091;SDS011;13082;52.374;4.946;2023-04-01T10:20:30;9.43;;;5.53;;
25091;SDS011;13082;52.374;4.946;2023-04-01T10:26:18;6.80;;;5.03;;
25091;SDS011;13082;52.374;4.946;2023-04-01T10:37:48;9.50;;;5.97;;
25091;SDS011;13082;52.374;4.946;2023-04-01T10:41:08;8.10;;;5.33;;
25091;SDS011;13082;52.374;4.946;2023-04-01T11:33:26;9.03;;;5.67;;
25091;SDS011;13082;52.374;4.946;2023-04-01T11:41:37;12.13;;;7.63;;
25091;SDS011;13082;52.374;4.946;2023-04-01T11:47:13;9.77;;;6.57;;
25091;SDS011;13082;52.374;4.946;2023-04-01T11:55:06;10.87;;;6.70;;
25091;SDS011;13082;52.374;4.946;2023-04-01T12:00:20;8.17;;;5.67;;
25091;SDS011;13082;52.374;4.946;2023-04-01T12:08:27;9.40;;;6.37;;
25091;SDS011;13082;52.374;4.946;2023-04-01T12:25:22;10.03;;;6.47;;
25091;SDS011;13082;52.374;4.946;2023-04-01T12:34:47;11.27;;;5.57;;
25091;SDS011;13082;52.374;4.946;2023-04-01T12:56:03;6.53;;;4.50;;
25091;SDS011;13082;52.374;4.946;2023-04-01T12:58:43;4.60;;;3.60;;
25091;SDS011;13082;52.374;4.946;2023-04-01T13:07:51;6.07;;;4.10;;
25091;SDS011;13082;52.374;4.946;2023-04-01T13:13:47;4.87;;;4.27;;
25091;SDS011;13082;52.374;4.946;2023-04-01T13:29:39;6.70;;;4.30;;
25091;SDS011;13082;52.374;4.946;2023-04-01T13:38:11;7.07;;;4.80;;
25091;SDS011;13082;52.374;4.946;2023-04-01T13:46:11;7.07;;;4.53;;
25091;SDS011;13082;52.374;4.946;2023-04-01T13:49:02;6.93;;;4.13;;
25091;SDS011;13082;52.374;4.946;2023-04-01T13:51:48;9.23;;;4.53;;
25091;SDS011;13082;52.374;4.946;2023-04-01T13:54:42;5.83;;;4.47;;
25091;SDS011;13082;52.374;4.946;2023-04-01T13:57:43;14.07;;;4.20;;
25091;SDS011;13082;52.374;4.946;2023-04-01T14:05:35;5.97;;;4.67;;
25091;SDS011;13082;52.374;4.946;2023-04-01T14:14:19;6.65;;;5.28;;
25091;SDS011;13082;52.374;4.946;2023-04-01T14:27:51;10.53;;;5.27;;
25091;SDS011;13082;52.374;4.946;2023-04-01T14:33:26;10.30;;;5.23;;
25091;SDS011;13082;52.374;4.946;2023-04-01T14:36:07;7.70;;;5.53;;
25091;SDS011;13082;52.374;4.946;2023-04-01T14:41:48;7.00;;;5.03;;
25091;SDS011;13082;52.374;4.946;2023-04-01T14:44:30;6.40;;;4.93;;
25091;SDS011;13082;52.374;4.946;2023-04-01T14:49:37;7.80;;;5.53;;
25091;SDS011;13082;52.374;4.946;2023-04-01T14:54:59;5.37;;;4.40;;
25091;SDS011;13082;52.374;4.946;2023-04-01T14:57:29;6.67;;;4.80;;
25091;SDS011;13082;52.374;4.946;2023-04-01T15:00:15;8.97;;;4.17;;
25091;SDS011;13082;52.374;4.946;2023-04-01T15:02:50;6.47;;;4.20;;
25091;SDS011;13082;52.374;4.946;2023-04-01T15:05:39;8.50;;;4.80;;
25091;SDS011;13082;52.374;4.946;2023-04-01T15:08:34;8.67;;;4.67;;
25091;SDS011;13082;52.374;4.946;2023-04-01T15:13:53;5.27;;;3.57;;
25091;SDS011;13082;52.374;4.946;2023-04-01T15:19:23;6.80;;;3.97;;
25091;SDS011;13082;52.374;4.946;2023-04-01T15:30:38;6.00;;;3.77;;
25091;SDS011;13082;52.374;4.946;2023-04-01T15:33:32;5.80;;;3.67;;
25091;SDS011;13082;52.374;4.946;2023-04-01T15:36:20;6.40;;;3.73;;
25091;SDS011;13082;52.374;4.946;2023-04-01T15:39:20;5.13;;;3.87;;
25091;SDS011;13082;52.374;4.946;2023-04-01T15:44:40;5.40;;;3.90;;
25091;SDS011;13082;52.374;4.946;2023-04-01T16:06:31;5.00;;;4.23;;
25091;SDS011;13082;52.374;4.946;2023-04-01T16:23:18;4.47;;;3.23;;
25091;SDS011;13082;52.374;4.946;2023-04-01T16:29:11;4.18;;;3.78;;
25091;SDS011;13082;52.374;4.946;2023-04-01T16:35:14;3.70;;;3.10;;
25091;SDS011;13082;52.374;4.946;2023-04-01T16:40:16;4.40;;;3.23;;
25091;SDS011;13082;52.374;4.946;2023-04-01T16:45:39;3.50;;;3.20;;
25091;SDS011;13082;52.374;4.946;2023-04-01T16:48:17;3.20;;;2.97;;
25091;SDS011;13082;52.374;4.946;2023-04-01T16:51:02;3.80;;;3.40;;
25091;SDS011;13082;52.374;4.946;2023-04-01T16:53:41;3.57;;;3.07;;
25091;SDS011;13082;52.374;4.946;2023-04-01T16:56:15;3.40;;;3.10;;
25091;SDS011;13082;52.374;4.946;2023-04-01T17:04:43;3.87;;;3.47;;
25091;SDS011;13082;52.374;4.946;2023-04-01T17:07:37;3.93;;;3.23;;
25091;SDS011;13082;52.374;4.946;2023-04-01T17:13:25;5.30;;;3.73;;
25091;SDS011;13082;52.374;4.946;2023-04-01T17:26:36;3.30;;;3.00;;
25091;SDS011;13082;52.374;4.946;2023-04-01T17:29:22;3.57;;;3.27;;
25091;SDS011;13082;52.374;4.946;2023-04-01T17:32:09;3.37;;;3.07;;
25091;SDS011;13082;52.374;4.946;2023-04-01T17:35:11;4.30;;;2.70;;
25091;SDS011;13082;52.374;4.946;2023-04-01T17:43:14;2.60;;;2.40;;
25091;SDS011;13082;52.374;4.946;2023-04-01T17:46:05;3.60;;;3.03;;
25091;SDS011;13082;52.374;4.946;2023-04-01T17:51:19;3.43;;;3.10;;
25091;SDS011;13082;52.374;4.946;2023-04-01T17:56:39;2.90;;;2.67;;
25091;SDS011;13082;52.374;4.946;2023-04-01T18:10:51;4.20;;;2.87;;
25091;SDS011;13082;52.374;4.946;2023-04-01T18:13:40;2.57;;;2.37;;
25091;SDS011;13082;52.374;4.946;2023-04-01T18:22:27;3.20;;;2.90;;
25091;SDS011;13082;52.374;4.946;2023-04-01T18:30:56;3.53;;;3.17;;
25091;SDS011;13082;52.374;4.946;2023-04-01T18:36:18;5.00;;;3.47;;
25091;SDS011;13082;52.374;4.946;2023-04-01T18:39:15;4.33;;;3.20;;
25091;SDS011;13082;52.374;4.946;2023-04-01T18:42:03;5.80;;;3.50;;
25091;SDS011;13082;52.374;4.946;2023-04-01T18:44:52;4.07;;;3.67;;
25091;SDS011;13082;52.374;4.946;2023-04-01T18:47:43;3.90;;;3.60;;
25091;SDS011;13082;52.374;4.946;2023-04-01T18:50:22;3.30;;;2.80;;
25091;SDS011;13082;52.374;4.946;2023-04-01T18:52:52;5.23;;;4.03;;
25091;SDS011;13082;52.374;4.946;2023-04-01T18:55:49;5.57;;;3.57;;
25091;SDS011;13082;52.374;4.946;2023-04-01T19:09:24;4.53;;;3.50;;
25091;SDS011;13082;52.374;4.946;2023-04-01T19:20:31;4.17;;;3.00;;
25091;SDS011;13082;52.374;4.946;2023-04-01T19:23:25;3.60;;;3.30;;
25091;SDS011;13082;52.374;4.946;2023-04-01T19:25:55;6.37;;;3.50;;
25091;SDS011;13082;52.374;4.946;2023-04-01T19:31:24;6.00;;;4.13;;
25091;SDS011;13082;52.374;4.946;2023-04-01T19:36:51;4.07;;;3.67;;
25091;SDS011;13082;52.374;4.946;2023-04-01T19:53:27;4.03;;;3.37;;
25091;SDS011;13082;52.374;4.946;2023-04-01T19:56:07;5.30;;;3.23;;
25091;SDS011;13082;52.374;4.946;2023-04-01T19:58:51;4.57;;;3.43;;
25091;SDS011;13082;52.374;4.946;2023-04-01T20:01:48;4.30;;;3.70;;
25091;SDS011;13082;52.374;4.946;2023-04-01T20:04:55;7.23;;;4.53;;
25091;SDS011;13082;52.374;4.946;2023-04-01T20:10:09;4.07;;;3.13;;
25091;SDS011;13082;52.374;4.946;2023-04-01T20:12:47;4.37;;;3.90;;
25091;SDS011;13082;52.374;4.946;2023-04-01T20:18:03;4.53;;;3.33;;
25091;SDS011;13082;52.374;4.946;2023-04-01T20:20:38;4.23;;;3.33;;
25091;SDS011;13082;52.374;4.946;2023-04-01T20:26:08;3.57;;;3.27;;
25091;SDS011;13082;52.374;4.946;2023-04-01T20:31:22;3.90;;;3.23;;
25091;SDS011;13082;52.374;4.946;2023-04-01T20:45:04;5.23;;;3.87;;
25091;SDS011;13082;52.374;4.946;2023-04-01T20:50:45;4.17;;;3.10;;
25091;SDS011;13082;52.374;4.946;2023-04-01T20:53:28;4.73;;;3.80;;
25091;SDS011;13082;52.374;4.946;2023-04-01T21:09:35;5.80;;;3.83;;
25091;SDS011;13082;52.374;4.946;2023-04-01T21:12:19;6.70;;;4.10;;
25091;SDS011;13082;52.374;4.946;2023-04-01T21:17:51;8.53;;;4.30;;
25091;SDS011;13082;52.374;4.946;2023-04-01T21:38:03;5.07;;;4.50;;
25091;SDS011;13082;52.374;4.946;2023-04-01T21:47:06;10.10;;;4.93;;
25091;SDS011;13082;52.374;4.946;2023-04-01T21:55:44;7.10;;;4.70;;
25091;SDS011;13082;52.374;4.946;2023-04-01T22:07:25;9.47;;;5.13;;
25091;SDS011;13082;52.374;4.946;2023-04-01T22:18:32;7.40;;;4.90;;
25091;SDS011;13082;52.374;4.946;2023-04-01T22:21:10;6.27;;;4.93;;
25091;SDS011;13082;52.374;4.946;2023-04-01T22:23:47;8.20;;;5.73;;
25091;SDS011;13082;52.374;4.946;2023-04-01T22:26:33;9.27;;;5.13;;
25091;SDS011;13082;52.374;4.946;2023-04-01T22:31:52;9.80;;;6.67;;
25091;SDS011;13082;52.374;4.946;2023-04-01T22:40:31;11.03;;;5.67;;
25091;SDS011;13082;52.374;4.946;2023-04-01T22:43:16;6.13;;;5.27;;
25091;SDS011;13082;52.374;4.946;2023-04-01T22:48:35;7.20;;;6.17;;
25091;SDS011;13082;52.374;4.946;2023-04-01T22:51:20;7.27;;;5.20;;
25091;SDS011;13082;52.374;4.946;2023-04-01T22:57:03;8.90;;;5.57;;
25091;SDS011;13082;52.374;4.946;2023-04-01T23:02:12;9.10;;;6.13;;
25091;SDS011;13082;52.374;4.946;2023-04-01T23:05:03;7.53;;;5.47;;
25091;SDS011;13082;52.374;4.946;2023-04-01T23:13:22;9.83;;;5.57;;
25091;SDS011;13082;52.374;4.946;2023-04-01T23:15:52;10.97;;;5.33;;
25091;SDS011;13082;52.374;4.946;2023-04-01T23:27:02;11.43;;;5.47;;
25091;SDS011;13082;52.374;4.946;2023-04-01T23:29:36;11.30;;;5.83;;
25091;SDS011;13082;52.374;4.946;2023-04-01T23:32:40;10.47;;;5.73;;
25091;SDS011;13082;52.374;4.946;2023-04-01T23:34:59;11.03;;;5.40;;
25091;SDS011;13082;52.374;4.946;2023-04-01T23:37:25;7.67;;;5.40;;
25091;SDS011;13082;52.374;4.946;2023-04-01T23:39:53;11.77;;;5.23;;
25091;SDS011;13082;52.374;4.946;2023-04-01T23:42:22;9.97;;;4.97;;
25091;SDS011;13082;52.374;4.946;2023-04-01T23:45:03;7.43;;;5.07;;
25091;SDS011;13082;52.374;4.946;2023-04-01T23:47:37;6.83;;;4.63;;
25091;SDS011;13082;52.374;4.946;2023-04-01T23:50:15;12.67;;;5.97;;
25091;SDS011;13082;52.374;4.946;2023-04-01T23:52:44;8.63;;;5.50;;
25091;SDS011;13082;52.374;4.946;2023-04-01T23:55:22;7.20;;;5.03;;
